createdAt,value
2023-10-26T00:01:23.346Z,19.20
2023-10-26T00:06:28.288Z,17.95
2023-10-26T00:11:31.933Z,18.92
2023-10-26T00:16:35.471Z,18.77
2023-10-26T00:21:40.773Z,17.13
2023-10-26T00:26:44.317Z,16.58
2023-10-26T00:31:47.851Z,17.70
2023-10-26T00:36:52.753Z,18.17
2023-10-26T00:41:57.361Z,18.65
2023-10-26T00:47:02.513Z,17.08
2023-10-26T00:52:07.815Z,17.15
2023-10-26T00:57:12.417Z,16.25
2023-10-26T01:02:17.279Z,19.85
2023-10-26T01:07:22.438Z,19.23
2023-10-26T01:12:27.498Z,20.65
2023-10-26T01:17:32.195Z,20.83
2023-10-26T01:22:37.087Z,19.77
2023-10-26T01:27:40.715Z,22.30
2023-10-26T01:32:44.308Z,22.50
2023-10-26T01:37:49.228Z,21.98
2023-10-26T01:42:52.986Z,23.95
2023-10-26T01:47:56.636Z,25.65
2023-10-26T01:53:01.640Z,27.10
2023-10-26T01:58:05.254Z,26.67
2023-10-26T02:03:08.865Z,27.48
2023-10-26T02:08:13.788Z,28.58
2023-10-26T02:13:17.392Z,29.10
2023-10-26T02:18:21.122Z,30.65
2023-10-26T02:23:27.087Z,29.92
2023-10-26T02:28:30.623Z,29.75
2023-10-26T02:33:34.235Z,29.38
2023-10-26T02:38:39.345Z,26.77
2023-10-26T02:43:42.848Z,29.17
2023-10-26T02:48:46.390Z,28.90
2023-10-26T02:53:51.492Z,27.50
2023-10-26T02:58:57.014Z,26.27
2023-10-26T03:04:00.789Z,25.10
2023-10-26T03:09:06.286Z,23.33
2023-10-26T03:14:09.867Z,25.55
2023-10-26T03:19:13.470Z,21.48
2023-10-26T03:24:18.391Z,24.20
2023-10-26T03:29:22.597Z,22.58
2023-10-26T03:34:26.149Z,24.83
2023-10-26T03:39:31.481Z,22.02
2023-10-26T03:44:35.077Z,24.10
2023-10-26T03:49:38.975Z,20.63
2023-10-26T03:54:44.098Z,21.35
2023-10-26T03:59:47.869Z,20.45
2023-10-26T04:04:51.788Z,23.30
2023-10-26T04:09:56.780Z,21.83
2023-10-26T04:15:00.364Z,21.65
2023-10-26T04:20:04.065Z,21.25
2023-10-26T04:25:09.859Z,22.33
2023-10-26T04:30:13.974Z,19.15
2023-10-26T04:35:17.604Z,19.77
2023-10-26T04:40:22.753Z,22.42
2023-10-26T04:45:26.469Z,23.65
2023-10-26T04:50:31.307Z,21.25
2023-10-26T04:55:36.303Z,22.48
2023-10-26T05:00:40.472Z,21.35
2023-10-26T05:05:44.149Z,20.98
2023-10-26T05:10:49.132Z,21.20
2023-10-26T05:15:52.767Z,20.08
2023-10-26T05:20:57.636Z,20.58
2023-10-26T05:26:02.590Z,21.25
2023-10-26T05:31:06.283Z,26.02
2023-10-26T05:36:10.508Z,21.17
2023-10-26T05:41:15.435Z,20.55
2023-10-26T05:46:19.181Z,22.95
2023-10-26T05:51:22.839Z,22.88
2023-10-26T05:56:27.748Z,22.30
2023-10-26T06:01:32.000Z,20.33
2023-10-26T06:06:36.053Z,21.58
2023-10-26T06:11:41.436Z,21.27
2023-10-26T06:16:44.966Z,20.02
2023-10-26T06:21:48.601Z,18.70
2023-10-26T06:26:53.546Z,19.67
2023-10-26T06:31:57.156Z,18.90
2023-10-26T06:37:00.727Z,19.27
2023-10-26T06:42:06.119Z,20.05
2023-10-26T06:47:10.381Z,17.98
2023-10-26T06:52:14.038Z,16.85
2023-10-26T06:57:18.979Z,18.20
2023-10-26T07:02:22.496Z,22.05
2023-10-26T07:07:26.985Z,20.65
2023-10-26T07:12:34.880Z,21.77
2023-10-26T07:17:38.543Z,32.40
2023-10-26T07:22:43.726Z,21.05
2023-10-26T07:27:48.627Z,20.05
2023-10-26T07:32:52.247Z,20.58
2023-10-26T07:38:09.079Z,22.08
2023-10-26T07:43:20.950Z,24.00
2023-10-26T07:48:24.680Z,19.98
2023-10-26T07:53:29.692Z,23.75
2023-10-26T07:58:34.746Z,21.98
2023-10-26T08:03:38.528Z,26.70
2023-10-26T08:08:42.164Z,37.92
2023-10-26T08:13:47.245Z,22.27
2023-10-26T08:18:50.915Z,21.67
2023-10-26T08:23:54.774Z,23.17
2023-10-26T08:34:06.355Z,20.30
2023-10-26T08:39:10.029Z,21.30
2023-10-26T08:44:15.164Z,22.20
2023-10-26T08:49:18.901Z,22.42
2023-10-26T08:54:22.621Z,22.35
2023-10-26T08:59:29.620Z,20.85
2023-10-26T09:04:33.863Z,23.60
2023-10-26T09:09:46.662Z,23.20
2023-10-26T09:15:00.717Z,24.70
2023-10-26T09:20:17.943Z,27.10
2023-10-26T09:25:21.759Z,25.13
2023-10-26T09:30:31.269Z,30.58
2023-10-26T09:35:35.788Z,29.42
2023-10-26T09:40:39.910Z,31.50
2023-10-26T09:45:45.352Z,29.75
2023-10-26T09:50:50.967Z,31.15
2023-10-26T09:55:54.761Z,30.63
2023-10-26T10:00:59.702Z,30.85
2023-10-26T10:06:05.176Z,30.13
2023-10-26T10:11:19.308Z,32.97
2023-10-26T10:16:55.403Z,30.67
2023-10-26T10:21:59.242Z,27.85
2023-10-26T10:27:13.517Z,28.67
2023-10-26T10:32:52.399Z,29.05
2023-10-26T10:38:23.906Z,29.40
2023-10-26T10:43:32.461Z,29.60
2023-10-26T10:48:38.120Z,28.52
2023-10-26T10:53:41.774Z,28.88
2023-10-26T10:58:45.346Z,29.20
2023-10-26T11:03:51.036Z,28.20
2023-10-26T11:08:54.677Z,26.73
2023-10-26T11:14:09.545Z,27.40
2023-10-26T11:19:14.555Z,28.95
2023-10-26T11:24:20.264Z,27.17
2023-10-26T11:29:23.926Z,26.58
2023-10-26T11:34:29.216Z,26.83
2023-10-26T11:39:32.894Z,28.02
2023-10-26T11:44:36.431Z,27.08
2023-10-26T11:49:42.997Z,23.08
2023-10-26T11:54:53.861Z,21.77
2023-10-26T11:59:59.171Z,21.45
2023-10-26T12:05:04.755Z,21.70
2023-10-26T12:10:09.077Z,22.23
2023-10-26T12:15:13.180Z,22.98
2023-10-26T12:20:18.411Z,22.92
2023-10-26T12:25:22.088Z,19.92
2023-10-26T12:30:25.714Z,23.17
2023-10-26T12:35:30.696Z,22.75
2023-10-26T12:40:34.323Z,24.10
2023-10-26T12:45:38.250Z,27.17
2023-10-26T12:50:43.180Z,25.20
2023-10-26T12:55:46.705Z,25.08
2023-10-26T13:00:50.526Z,22.40
2023-10-26T13:05:55.418Z,27.73
2023-10-26T13:10:58.993Z,26.08
2023-10-26T13:16:02.588Z,25.65
2023-10-26T13:21:08.231Z,24.98
2023-10-26T13:26:12.101Z,24.38
2023-10-26T13:31:15.766Z,22.27
2023-10-26T13:36:20.709Z,20.48
2023-10-26T13:41:24.923Z,21.67
2023-10-26T13:46:29.378Z,20.77
2023-10-26T13:51:34.509Z,22.60
2023-10-26T13:56:38.018Z,21.88
2023-10-26T14:01:42.121Z,21.13
2023-10-26T14:06:47.217Z,23.55
2023-10-26T14:11:50.770Z,21.70
2023-10-26T14:16:54.385Z,21.00
2023-10-26T14:21:59.398Z,21.08
2023-10-26T14:27:03.072Z,20.45
2023-10-26T14:32:07.128Z,18.60
2023-10-26T14:37:13.051Z,17.92
2023-10-26T14:42:17.288Z,15.68
2023-10-26T14:47:20.847Z,17.05
2023-10-26T14:52:25.781Z,16.65
2023-10-26T14:57:29.306Z,16.00
2023-10-26T15:02:32.962Z,16.75
2023-10-26T15:07:38.227Z,17.20
2023-10-26T15:12:41.819Z,15.82
2023-10-26T15:17:45.610Z,17.33
2023-10-26T15:22:50.518Z,16.10
2023-10-26T15:27:55.351Z,16.92
2023-10-26T15:33:00.483Z,16.00
2023-10-26T15:38:05.449Z,19.63
2023-10-26T15:43:09.083Z,18.80
2023-10-26T15:48:12.733Z,17.02
2023-10-26T15:53:20.161Z,17.58
2023-10-26T15:58:23.757Z,16.13
2023-10-26T16:03:30.701Z,16.23
2023-10-26T16:08:37.286Z,17.15
2023-10-26T16:13:41.695Z,17.27
2023-10-26T16:18:47.555Z,19.35
2023-10-26T16:23:52.632Z,17.38
2023-10-26T16:28:56.199Z,18.52
2023-10-26T16:33:59.805Z,18.25
2023-10-26T16:39:05.578Z,17.60
2023-10-26T16:44:09.386Z,17.60
2023-10-26T16:49:12.988Z,16.48
2023-10-26T16:54:17.898Z,17.77
2023-10-26T16:59:21.427Z,21.40
2023-10-26T17:04:24.972Z,16.90
2023-10-26T17:09:29.996Z,17.70
2023-10-26T17:14:33.520Z,16.10
2023-10-26T17:19:37.032Z,17.08
2023-10-26T17:24:42.073Z,17.95
2023-10-26T17:29:48.394Z,13.82
2023-10-26T17:34:52.045Z,16.70
2023-10-26T17:39:57.020Z,16.25
2023-10-26T17:45:00.631Z,15.45
2023-10-26T17:50:04.277Z,18.50
2023-10-26T17:55:12.937Z,17.65
2023-10-26T18:00:17.251Z,18.50
2023-10-26T18:05:21.864Z,19.58
2023-10-26T18:10:26.763Z,17.77
2023-10-26T18:15:30.309Z,18.30
2023-10-26T18:20:33.879Z,20.27
2023-10-26T18:25:38.753Z,21.55
2023-10-26T18:30:42.431Z,20.80
2023-10-26T18:35:46.062Z,22.50
2023-10-26T18:40:50.928Z,22.35
2023-10-26T18:45:58.819Z,24.30
2023-10-26T18:51:02.715Z,24.42
2023-10-26T18:56:14.243Z,25.40
2023-10-26T19:01:18.038Z,26.85
2023-10-26T19:06:21.666Z,25.88
2023-10-26T19:11:26.574Z,28.40
2023-10-26T19:16:30.205Z,27.48
2023-10-26T19:21:33.811Z,31.92
2023-10-26T19:26:38.695Z,33.63
2023-10-26T19:31:42.385Z,33.50
2023-10-26T19:36:45.985Z,32.13
2023-10-26T19:41:50.967Z,28.83
2023-10-26T19:46:54.590Z,30.48
2023-10-26T19:51:58.261Z,32.33
2023-10-26T19:57:03.783Z,31.38
2023-10-26T20:02:07.734Z,30.58
2023-10-26T20:07:11.657Z,29.10
2023-10-26T20:12:16.574Z,30.70
2023-10-26T20:17:20.180Z,28.23
2023-10-26T20:22:23.719Z,30.75
2023-10-26T20:27:28.605Z,27.95
2023-10-26T20:32:33.979Z,29.80
2023-10-26T20:37:40.563Z,30.27
2023-10-26T20:42:46.505Z,29.52
2023-10-26T20:47:50.218Z,33.25
2023-10-26T20:52:53.741Z,31.63
2023-10-26T20:57:58.961Z,57.55
2023-10-26T21:03:02.578Z,34.97
2023-10-26T21:08:06.579Z,35.15
2023-10-26T21:13:11.663Z,34.58
2023-10-26T21:18:15.364Z,33.90
2023-10-26T21:23:18.857Z,34.08
2023-10-26T21:28:24.828Z,33.38
2023-10-26T21:33:28.469Z,33.22
2023-10-26T21:38:32.025Z,33.70
2023-10-26T21:43:36.964Z,35.53
2023-10-26T21:48:40.944Z,34.08
2023-10-26T21:53:44.634Z,34.05
2023-10-26T21:58:51.218Z,33.88
2023-10-26T22:04:17.911Z,37.78
2023-10-26T22:09:22.066Z,33.88
2023-10-26T22:14:27.068Z,33.47
2023-10-26T22:19:31.003Z,33.13
2023-10-26T22:24:34.505Z,30.65
2023-10-26T22:29:39.441Z,32.55
2023-10-26T22:34:43.061Z,34.40
2023-10-26T22:39:46.879Z,34.85
2023-10-26T22:44:52.151Z,34.67
2023-10-26T22:49:56.846Z,36.10
2023-10-26T22:55:01.160Z,35.53
2023-10-26T23:00:07.630Z,33.75
2023-10-26T23:05:11.176Z,36.30
2023-10-26T23:10:14.749Z,34.97
2023-10-26T23:15:19.719Z,38.38
2023-10-26T23:20:23.245Z,37.25
2023-10-26T23:25:26.883Z,37.58
2023-10-26T23:30:31.818Z,36.58
2023-10-26T23:35:38.884Z,36.40
2023-10-26T23:40:42.524Z,35.67
2023-10-26T23:45:47.662Z,39.05
2023-10-26T23:50:52.031Z,37.47
2023-10-26T23:55:55.571Z,38.20
